sensor_id;sensor_type;location;lat;lon;timestamp;P1;durP1;ratioP1;P2;durP2;ratioP2
30010;SDS011;16851;53.564;8.112;2022-09-13T00:09:42;21.73;;;16.42;;
30010;SDS011;16851;53.564;8.112;2022-09-13T00:14:44;22.15;;;16.95;;
30010;SDS011;16851;53.564;8.112;2022-09-13T00:19:45;17.95;;;14.82;;
30010;SDS011;16851;53.564;8.112;2022-09-13T00:24:56;21.98;;;15.48;;
30010;SDS011;16851;53.564;8.112;2022-09-13T00:30:02;19.35;;;14.65;;
30010;SDS011;16851;53.564;8.112;2022-09-13T00:35:09;18.25;;;14.90;;
30010;SDS011;16851;53.564;8.112;2022-09-13T00:40:14;21.95;;;15.65;;
30010;SDS011;16851;53.564;8.112;2022-09-13T00:45:20;20.77;;;14.70;;
30010;SDS011;16851;53.564;8.112;2022-09-13T00:50:24;21.40;;;15.95;;
30010;SDS011;16851;53.564;8.112;2022-09-13T00:55:38;18.52;;;14.93;;
30010;SDS011;16851;53.564;8.112;2022-09-13T01:00:54;20.13;;;16.42;;
30010;SDS011;16851;53.564;8.112;2022-09-13T01:06:00;23.30;;;16.02;;
30010;SDS011;16851;53.564;8.112;2022-09-13T01:11:08;21.10;;;15.88;;
30010;SDS011;16851;53.564;8.112;2022-09-13T01:16:14;20.38;;;15.38;;
30010;SDS011;16851;53.564;8.112;2022-09-13T01:21:26;21.88;;;16.17;;
30010;SDS011;16851;53.564;8.112;2022-09-13T01:32:25;21.75;;;17.65;;
30010;SDS011;16851;53.564;8.112;2022-09-13T01:42:45;28.00;;;18.35;;
30010;SDS011;16851;53.564;8.112;2022-09-13T01:47:52;22.25;;;16.95;;
30010;SDS011;16851;53.564;8.112;2022-09-13T02:08:48;32.85;;;21.58;;
30010;SDS011;16851;53.564;8.112;2022-09-13T02:19:09;28.80;;;21.00;;
30010;SDS011;16851;53.564;8.112;2022-09-13T02:24:25;31.85;;;22.25;;
30010;SDS011;16851;53.564;8.112;2022-09-13T02:29:35;30.58;;;22.58;;
30010;SDS011;16851;53.564;8.112;2022-09-13T02:34:41;33.60;;;26.42;;
30010;SDS011;16851;53.564;8.112;2022-09-13T02:39:50;38.33;;;25.80;;
30010;SDS011;16851;53.564;8.112;2022-09-13T02:44:56;38.30;;;25.27;;
30010;SDS011;16851;53.564;8.112;2022-09-13T02:50:20;38.65;;;26.70;;
30010;SDS011;16851;53.564;8.112;2022-09-13T03:00:39;37.53;;;25.05;;
30010;SDS011;16851;53.564;8.112;2022-09-13T03:05:46;44.53;;;26.50;;
30010;SDS011;16851;53.564;8.112;2022-09-13T03:10:51;40.45;;;25.92;;
30010;SDS011;16851;53.564;8.112;2022-09-13T03:16:04;34.15;;;23.33;;
30010;SDS011;16851;53.564;8.112;2022-09-13T03:42:12;30.45;;;19.73;;
30010;SDS011;16851;53.564;8.112;2022-09-13T03:47:22;25.63;;;19.50;;
30010;SDS011;16851;53.564;8.112;2022-09-13T03:52:35;27.60;;;18.92;;
30010;SDS011;16851;53.564;8.112;2022-09-13T03:57:44;38.92;;;20.27;;
30010;SDS011;16851;53.564;8.112;2022-09-13T04:02:47;26.35;;;17.65;;
30010;SDS011;16851;53.564;8.112;2022-09-13T04:07:51;24.13;;;17.63;;
30010;SDS011;16851;53.564;8.112;2022-09-13T04:12:53;26.45;;;16.88;;
30010;SDS011;16851;53.564;8.112;2022-09-13T04:17:57;24.35;;;16.75;;
30010;SDS011;16851;53.564;8.112;2022-09-13T04:23:03;25.23;;;16.48;;
30010;SDS011;16851;53.564;8.112;2022-09-13T04:28:10;21.02;;;14.77;;
30010;SDS011;16851;53.564;8.112;2022-09-13T04:33:16;22.55;;;14.68;;
30010;SDS011;16851;53.564;8.112;2022-09-13T04:38:18;23.02;;;14.55;;
30010;SDS011;16851;53.564;8.112;2022-09-13T04:43:23;25.88;;;14.20;;
30010;SDS011;16851;53.564;8.112;2022-09-13T04:48:25;21.30;;;12.45;;
30010;SDS011;16851;53.564;8.112;2022-09-13T04:53:30;15.00;;;10.15;;
30010;SDS011;16851;53.564;8.112;2022-09-13T04:58:32;14.35;;;8.25;;
30010;SDS011;16851;53.564;8.112;2022-09-13T05:03:39;11.63;;;7.55;;
30010;SDS011;16851;53.564;8.112;2022-09-13T05:08:43;13.00;;;7.10;;
30010;SDS011;16851;53.564;8.112;2022-09-13T05:13:50;10.45;;;6.30;;
30010;SDS011;16851;53.564;8.112;2022-09-13T05:18:55;10.93;;;6.90;;
30010;SDS011;16851;53.564;8.112;2022-09-13T05:23:57;12.60;;;6.35;;
30010;SDS011;16851;53.564;8.112;2022-09-13T05:29:03;9.48;;;6.05;;
30010;SDS011;16851;53.564;8.112;2022-09-13T05:34:08;10.02;;;5.75;;
30010;SDS011;16851;53.564;8.112;2022-09-13T05:39:16;9.20;;;5.70;;
30010;SDS011;16851;53.564;8.112;2022-09-13T05:44:37;9.85;;;5.38;;
30010;SDS011;16851;53.564;8.112;2022-09-13T05:49:44;19.65;;;4.82;;
30010;SDS011;16851;53.564;8.112;2022-09-13T05:55:05;11.80;;;4.68;;
30010;SDS011;16851;53.564;8.112;2022-09-13T06:00:07;9.02;;;4.50;;
30010;SDS011;16851;53.564;8.112;2022-09-13T06:05:13;10.27;;;4.55;;
30010;SDS011;16851;53.564;8.112;2022-09-13T06:10:15;12.75;;;3.70;;
30010;SDS011;16851;53.564;8.112;2022-09-13T06:15:21;9.52;;;2.90;;
30010;SDS011;16851;53.564;8.112;2022-09-13T06:20:25;10.68;;;3.85;;
30010;SDS011;16851;53.564;8.112;2022-09-13T06:25:31;10.30;;;3.40;;
30010;SDS011;16851;53.564;8.112;2022-09-13T06:30:35;15.20;;;3.67;;
30010;SDS011;16851;53.564;8.112;2022-09-13T06:35:44;12.18;;;3.38;;
30010;SDS011;16851;53.564;8.112;2022-09-13T06:40:57;10.45;;;3.58;;
30010;SDS011;16851;53.564;8.112;2022-09-13T06:46:05;10.90;;;2.75;;
30010;SDS011;16851;53.564;8.112;2022-09-13T06:51:14;14.93;;;3.00;;
30010;SDS011;16851;53.564;8.112;2022-09-13T07:01:22;13.52;;;3.28;;
30010;SDS011;16851;53.564;8.112;2022-09-13T07:06:33;13.35;;;2.42;;
30010;SDS011;16851;53.564;8.112;2022-09-13T07:11:40;9.25;;;1.70;;
30010;SDS011;16851;53.564;8.112;2022-09-13T07:16:45;12.02;;;1.52;;
30010;SDS011;16851;53.564;8.112;2022-09-13T07:21:49;7.55;;;1.25;;
30010;SDS011;16851;53.564;8.112;2022-09-13T07:26:51;8.40;;;1.67;;
30010;SDS011;16851;53.564;8.112;2022-09-13T07:31:56;8.32;;;1.50;;
30010;SDS011;16851;53.564;8.112;2022-09-13T07:36:58;12.40;;;1.67;;
30010;SDS011;16851;53.564;8.112;2022-09-13T07:42:01;6.95;;;1.73;;
30010;SDS011;16851;53.564;8.112;2022-09-13T07:47:07;14.43;;;1.50;;
30010;SDS011;16851;53.564;8.112;2022-09-13T07:52:09;12.07;;;1.10;;
30010;SDS011;16851;53.564;8.112;2022-09-13T07:57:11;10.45;;;1.90;;
30010;SDS011;16851;53.564;8.112;2022-09-13T08:02:13;7.53;;;0.90;;
30010;SDS011;16851;53.564;8.112;2022-09-13T08:07:18;11.70;;;1.67;;
30010;SDS011;16851;53.564;8.112;2022-09-13T08:12:23;9.75;;;1.15;;
30010;SDS011;16851;53.564;8.112;2022-09-13T08:17:24;5.90;;;1.05;;
30010;SDS011;16851;53.564;8.112;2022-09-13T08:22:29;12.32;;;1.63;;
30010;SDS011;16851;53.564;8.112;2022-09-13T08:27:31;9.35;;;1.15;;
30010;SDS011;16851;53.564;8.112;2022-09-13T08:32:36;9.43;;;1.30;;
30010;SDS011;16851;53.564;8.112;2022-09-13T08:37:40;7.43;;;1.08;;
30010;SDS011;16851;53.564;8.112;2022-09-13T08:48:10;12.20;;;1.42;;
30010;SDS011;16851;53.564;8.112;2022-09-13T09:03:58;9.45;;;1.50;;
30010;SDS011;16851;53.564;8.112;2022-09-13T09:09:05;7.05;;;1.30;;
30010;SDS011;16851;53.564;8.112;2022-09-13T09:14:26;6.93;;;1.10;;
30010;SDS011;16851;53.564;8.112;2022-09-13T09:25:29;7.13;;;1.00;;
30010;SDS011;16851;53.564;8.112;2022-09-13T09:41:42;6.13;;;1.48;;
30010;SDS011;16851;53.564;8.112;2022-09-13T09:46:49;6.93;;;1.60;;
30010;SDS011;16851;53.564;8.112;2022-09-13T09:51:56;9.18;;;1.55;;
30010;SDS011;16851;53.564;8.112;2022-09-13T09:56:58;6.32;;;1.40;;
30010;SDS011;16851;53.564;8.112;2022-09-13T10:02:01;6.93;;;1.10;;
30010;SDS011;16851;53.564;8.112;2022-09-13T10:07:27;10.57;;;1.33;;
30010;SDS011;16851;53.564;8.112;2022-09-13T10:12:36;10.43;;;1.30;;
30010;SDS011;16851;53.564;8.112;2022-09-13T10:18:00;6.18;;;1.17;;
30010;SDS011;16851;53.564;8.112;2022-09-13T10:23:38;4.45;;;1.00;;
30010;SDS011;16851;53.564;8.112;2022-09-13T10:28:48;3.05;;;0.70;;
30010;SDS011;16851;53.564;8.112;2022-09-13T10:34:03;9.20;;;1.10;;
30010;SDS011;16851;53.564;8.112;2022-09-13T10:39:26;5.38;;;1.13;;
30010;SDS011;16851;53.564;8.112;2022-09-13T10:44:45;4.05;;;0.82;;
30010;SDS011;16851;53.564;8.112;2022-09-13T10:55:28;3.72;;;0.80;;
30010;SDS011;16851;53.564;8.112;2022-09-13T11:06:14;9.02;;;1.10;;
30010;SDS011;16851;53.564;8.112;2022-09-13T11:16:49;4.82;;;1.17;;
30010;SDS011;16851;53.564;8.112;2022-09-13T11:33:12;5.18;;;1.40;;
30010;SDS011;16851;53.564;8.112;2022-09-13T11:49:17;5.75;;;0.98;;
30010;SDS011;16851;53.564;8.112;2022-09-13T11:59:46;8.80;;;1.25;;
30010;SDS011;16851;53.564;8.112;2022-09-13T12:04:55;9.73;;;1.40;;
30010;SDS011;16851;53.564;8.112;2022-09-13T12:10:25;7.97;;;1.60;;
30010;SDS011;16851;53.564;8.112;2022-09-13T12:15:43;7.38;;;1.30;;
30010;SDS011;16851;53.564;8.112;2022-09-13T12:20:51;8.55;;;1.15;;
30010;SDS011;16851;53.564;8.112;2022-09-13T12:26:01;9.52;;;1.40;;
30010;SDS011;16851;53.564;8.112;2022-09-13T12:31:10;10.32;;;1.50;;
30010;SDS011;16851;53.564;8.112;2022-09-13T12:57:47;9.38;;;1.40;;
30010;SDS011;16851;53.564;8.112;2022-09-13T13:08:27;7.57;;;1.38;;
30010;SDS011;16851;53.564;8.112;2022-09-13T13:13:34;8.30;;;1.70;;
30010;SDS011;16851;53.564;8.112;2022-09-13T13:23:43;11.23;;;1.85;;
30010;SDS011;16851;53.564;8.112;2022-09-13T13:28:53;7.50;;;1.30;;
30010;SDS011;16851;53.564;8.112;2022-09-13T14:00:14;7.40;;;1.13;;
30010;SDS011;16851;53.564;8.112;2022-09-13T14:05:36;7.65;;;1.42;;
30010;SDS011;16851;53.564;8.112;2022-09-13T14:15:52;9.30;;;1.45;;
30010;SDS011;16851;53.564;8.112;2022-09-13T14:26:04;5.40;;;1.05;;
30010;SDS011;16851;53.564;8.112;2022-09-13T14:31:15;5.80;;;1.02;;
30010;SDS011;16851;53.564;8.112;2022-09-13T14:36:21;4.50;;;1.08;;
30010;SDS011;16851;53.564;8.112;2022-09-13T14:41:33;5.18;;;0.95;;
30010;SDS011;16851;53.564;8.112;2022-09-13T14:46:39;9.10;;;1.58;;
30010;SDS011;16851;53.564;8.112;2022-09-13T14:52:00;9.18;;;1.17;;
30010;SDS011;16851;53.564;8.112;2022-09-13T14:57:07;6.50;;;0.82;;
30010;SDS011;16851;53.564;8.112;2022-09-13T15:12:32;7.97;;;1.50;;
30010;SDS011;16851;53.564;8.112;2022-09-13T15:17:49;7.93;;;1.20;;
30010;SDS011;16851;53.564;8.112;2022-09-13T15:23:10;11.35;;;1.42;;
30010;SDS011;16851;53.564;8.112;2022-09-13T15:28:19;5.90;;;0.90;;
30010;SDS011;16851;53.564;8.112;2022-09-13T15:33:32;5.70;;;1.08;;
30010;SDS011;16851;53.564;8.112;2022-09-13T15:44:03;3.85;;;0.98;;
30010;SDS011;16851;53.564;8.112;2022-09-13T15:49:06;8.55;;;1.08;;
30010;SDS011;16851;53.564;8.112;2022-09-13T15:54:11;6.63;;;1.00;;
30010;SDS011;16851;53.564;8.112;2022-09-13T15:59:18;7.20;;;0.95;;
30010;SDS011;16851;53.564;8.112;2022-09-13T16:04:21;7.93;;;1.23;;
30010;SDS011;16851;53.564;8.112;2022-09-13T16:09:23;3.67;;;0.60;;
30010;SDS011;16851;53.564;8.112;2022-09-13T16:14:25;4.88;;;0.80;;
30010;SDS011;16851;53.564;8.112;2022-09-13T16:19:27;6.15;;;0.80;;
30010;SDS011;16851;53.564;8.112;2022-09-13T16:24:31;7.97;;;0.82;;
30010;SDS011;16851;53.564;8.112;2022-09-13T16:29:36;5.40;;;0.75;;
30010;SDS011;16851;53.564;8.112;2022-09-13T16:34:38;6.97;;;0.77;;
30010;SDS011;16851;53.564;8.112;2022-09-13T16:39:43;5.78;;;0.80;;
30010;SDS011;16851;53.564;8.112;2022-09-13T16:44:48;4.60;;;0.60;;
30010;SDS011;16851;53.564;8.112;2022-09-13T16:49:52;4.50;;;1.38;;
30010;SDS011;16851;53.564;8.112;2022-09-13T16:54:54;5.65;;;1.02;;
30010;SDS011;16851;53.564;8.112;2022-09-13T17:00:01;7.05;;;1.13;;
30010;SDS011;16851;53.564;8.112;2022-09-13T17:05:07;11.82;;;1.15;;
30010;SDS011;16851;53.564;8.112;2022-09-13T17:10:11;3.72;;;0.70;;
30010;SDS011;16851;53.564;8.112;2022-09-13T17:15:15;7.80;;;1.00;;
30010;SDS011;16851;53.564;8.112;2022-09-13T17:20:17;6.20;;;1.00;;
30010;SDS011;16851;53.564;8.112;2022-09-13T17:25:21;6.93;;;0.80;;
30010;SDS011;16851;53.564;8.112;2022-09-13T17:30:23;6.15;;;1.13;;
30010;SDS011;16851;53.564;8.112;2022-09-13T17:35:27;4.70;;;0.82;;
30010;SDS011;16851;53.564;8.112;2022-09-13T17:40:32;6.07;;;0.85;;
30010;SDS011;16851;53.564;8.112;2022-09-13T17:45:37;6.50;;;0.90;;
30010;SDS011;16851;53.564;8.112;2022-09-13T17:50:41;4.55;;;0.80;;
30010;SDS011;16851;53.564;8.112;2022-09-13T17:55:49;5.82;;;1.00;;
30010;SDS011;16851;53.564;8.112;2022-09-13T18:00:51;4.40;;;0.88;;
30010;SDS011;16851;53.564;8.112;2022-09-13T18:06:08;2.75;;;0.60;;
30010;SDS011;16851;53.564;8.112;2022-09-13T18:11:11;7.00;;;0.95;;
30010;SDS011;16851;53.564;8.112;2022-09-13T18:16:21;7.13;;;0.70;;
30010;SDS011;16851;53.564;8.112;2022-09-13T18:21:24;8.88;;;1.00;;
30010;SDS011;16851;53.564;8.112;2022-09-13T18:26:28;4.00;;;0.80;;
30010;SDS011;16851;53.564;8.112;2022-09-13T18:31:32;3.80;;;0.63;;
30010;SDS011;16851;53.564;8.112;2022-09-13T18:36:35;9.85;;;0.90;;
30010;SDS011;16851;53.564;8.112;2022-09-13T18:41:38;5.22;;;1.05;;
30010;SDS011;16851;53.564;8.112;2022-09-13T18:46:42;3.45;;;0.70;;
30010;SDS011;16851;53.564;8.112;2022-09-13T18:51:45;6.95;;;1.00;;
30010;SDS011;16851;53.564;8.112;2022-09-13T18:56:47;2.58;;;0.73;;
30010;SDS011;16851;53.564;8.112;2022-09-13T19:01:49;7.18;;;1.00;;
30010;SDS011;16851;53.564;8.112;2022-09-13T19:06:52;4.50;;;0.90;;
30010;SDS011;16851;53.564;8.112;2022-09-13T19:11:56;9.07;;;0.95;;
30010;SDS011;16851;53.564;8.112;2022-09-13T19:17:06;7.75;;;1.00;;
30010;SDS011;16851;53.564;8.112;2022-09-13T19:22:10;2.42;;;0.70;;
30010;SDS011;16851;53.564;8.112;2022-09-13T19:27:14;11.32;;;1.25;;
30010;SDS011;16851;53.564;8.112;2022-09-13T19:32:20;6.07;;;1.20;;
30010;SDS011;16851;53.564;8.112;2022-09-13T19:37:22;10.85;;;1.60;;
30010;SDS011;16851;53.564;8.112;2022-09-13T19:42:24;6.18;;;1.00;;
30010;SDS011;16851;53.564;8.112;2022-09-13T19:47:26;8.77;;;1.25;;
30010;SDS011;16851;53.564;8.112;2022-09-13T19:52:48;5.47;;;0.80;;
30010;SDS011;16851;53.564;8.112;2022-09-13T19:57:50;10.70;;;1.02;;
30010;SDS011;16851;53.564;8.112;2022-09-13T20:02:53;6.38;;;0.98;;
30010;SDS011;16851;53.564;8.112;2022-09-13T20:07:55;12.60;;;1.20;;
30010;SDS011;16851;53.564;8.112;2022-09-13T20:12:59;7.20;;;0.93;;
30010;SDS011;16851;53.564;8.112;2022-09-13T20:18:03;4.95;;;1.08;;
30010;SDS011;16851;53.564;8.112;2022-09-13T20:23:16;7.00;;;1.52;;
30010;SDS011;16851;53.564;8.112;2022-09-13T20:28:18;6.47;;;0.98;;
30010;SDS011;16851;53.564;8.112;2022-09-13T20:33:22;4.25;;;0.90;;
30010;SDS011;16851;53.564;8.112;2022-09-13T20:38:26;5.07;;;1.00;;
30010;SDS011;16851;53.564;8.112;2022-09-13T20:43:30;5.35;;;1.00;;
30010;SDS011;16851;53.564;8.112;2022-09-13T20:48:34;9.02;;;1.08;;
30010;SDS011;16851;53.564;8.112;2022-09-13T20:53:36;3.95;;;0.93;;
30010;SDS011;16851;53.564;8.112;2022-09-13T20:58:40;8.32;;;0.90;;
30010;SDS011;16851;53.564;8.112;2022-09-13T21:03:46;7.47;;;1.10;;
30010;SDS011;16851;53.564;8.112;2022-09-13T21:08:56;7.60;;;0.90;;
30010;SDS011;16851;53.564;8.112;2022-09-13T21:14:06;6.85;;;1.27;;
30010;SDS011;16851;53.564;8.112;2022-09-13T21:19:09;7.75;;;0.93;;
30010;SDS011;16851;53.564;8.112;2022-09-13T21:24:11;6.63;;;1.20;;
30010;SDS011;16851;53.564;8.112;2022-09-13T21:29:13;6.70;;;0.90;;
30010;SDS011;16851;53.564;8.112;2022-09-13T21:34:16;4.50;;;0.90;;
30010;SDS011;16851;53.564;8.112;2022-09-13T21:39:20;7.93;;;1.23;;
30010;SDS011;16851;53.564;8.112;2022-09-13T21:44:22;7.63;;;1.17;;
30010;SDS011;16851;53.564;8.112;2022-09-13T21:49:29;7.28;;;0.95;;
30010;SDS011;16851;53.564;8.112;2022-09-13T21:54:35;5.50;;;0.98;;
30010;SDS011;16851;53.564;8.112;2022-09-13T21:59:37;4.70;;;1.20;;
30010;SDS011;16851;53.564;8.112;2022-09-13T22:04:46;4.72;;;0.70;;
30010;SDS011;16851;53.564;8.112;2022-09-13T22:09:54;2.15;;;0.85;;
30010;SDS011;16851;53.564;8.112;2022-09-13T22:14:59;6.28;;;1.08;;
30010;SDS011;16851;53.564;8.112;2022-09-13T22:20:00;12.10;;;1.20;;
30010;SDS011;16851;53.564;8.112;2022-09-13T22:25:03;5.68;;;1.10;;
30010;SDS011;16851;53.564;8.112;2022-09-13T22:30:08;6.35;;;1.33;;
30010;SDS011;16851;53.564;8.112;2022-09-13T22:35:14;3.22;;;1.15;;
30010;SDS011;16851;53.564;8.112;2022-09-13T22:40:20;5.25;;;1.10;;
30010;SDS011;16851;53.564;8.112;2022-09-13T22:45:25;3.33;;;0.75;;
30010;SDS011;16851;53.564;8.112;2022-09-13T22:50:27;3.78;;;1.00;;
30010;SDS011;16851;53.564;8.112;2022-09-13T22:55:38;7.20;;;0.98;;
30010;SDS011;16851;53.564;8.112;2022-09-13T23:00:43;4.30;;;1.42;;
30010;SDS011;16851;53.564;8.112;2022-09-13T23:05:48;4.82;;;1.00;;
30010;SDS011;16851;53.564;8.112;2022-09-13T23:11:13;6.57;;;0.90;;
30010;SDS011;16851;53.564;8.112;2022-09-13T23:21:29;5.95;;;1.25;;
30010;SDS011;16851;53.564;8.112;2022-09-13T23:26:39;5.75;;;1.38;;
30010;SDS011;16851;53.564;8.112;2022-09-13T23:31:42;5.47;;;1.20;;
30010;SDS011;16851;53.564;8.112;2022-09-13T23:36:44;8.90;;;0.90;;
30010;SDS011;16851;53.564;8.112;2022-09-13T23:41:47;9.07;;;1.95;;
30010;SDS011;16851;53.564;8.112;2022-09-13T23:46:52;7.32;;;1.15;;
30010;SDS011;16851;53.564;8.112;2022-09-13T23:51:54;5.57;;;1.13;;
30010;SDS011;16851;53.564;8.112;2022-09-13T23:57:04;5.47;;;0.90;;
